Erquelinnes, Belgium
Current Conditions -  °F | °C
As of 5:50 AM on Thursday 23 Oct 2014 (Local Time) from EBCI Reporting Station
Broken Clouds Broken Clouds  
Wind Chill: 43°   Ceiling: 3000
Heat Index: 46°   Visibility: 6mi
Dew Point: 43°   Wind: 7mph
Humidity: 87%   Direction: 230°SW
Pressure: 30.21"   Gusts: NA
Location:  50.31°N, 4.11°E
Report Text: EBCI 230350Z 23006KT 9999 FEW022 BKN030 08/06 Q1023 NOSIG
Loading
Personal Weather Stations






























Interactive Weather Map New forecast layout! Learn more

10-Day Weather Forecast

Advertisements
Track Severe Weather on mobile